Fairbury, Nebraska
Current Conditions -  °F | °C
As of 1:55 AM on Wednesday 22 Oct 2014 (Local Time) from KHJH Reporting Station
Clear Clear  
Wind Chill: 57°   Ceiling: Unl
Heat Index: 57°   Visibility: 10mi
Dew Point: 49°   Wind: 8mph
Humidity: 76%   Direction: 140°SE
Pressure: 30.01"   Gusts: NA
Location:  40.14°N, 97.18°W
Report Text: KHJH 220655Z AUTO 14007KT 10SM CLR 14/10 A3001 RMK AO2 T01380097
Loading
Personal Weather Stations






























Interactive Weather Map
Tropical Storm Tracking
New forecast layout! Learn more

10-Day Weather Forecast

Advertisements
Track Severe Weather on mobile